METAR Data
IDs: Format: Raw Decoded Include TAF

Data at: 1335 UTC 14 Dec 2019

PADE 141253Z AUTO 14004KT 10SM CLR M09/M09 A2954 RMK AO2 SLP003 T10891094 TSNO
PADE 141153Z AUTO 03003KT 10SM OVC060 M07/M08 A2954 RMK AO2 SLP005 T10671083 11050 21106 51007 TSNO
PADE 141053Z AUTO 09006KT 10SM OVC110 M07/M08 A2954 RMK AO2 SLP004 T10721083 TSNO
PADE 140953Z AUTO 11008KT 10SM OVC110 M07/M08 A2954 RMK AO2 SLP003 T10671083 TSNO
PADE 140853Z AUTO 11006KT 10SM FEW065 SCT110 M09/M11 A2952 RMK AO2 SLP998 T10941106 410671128 51012 TSNO
PADE 140753Z AUTO 10005KT 10SM CLR M09/M10 A2951 RMK AO2 SLP994 T10891100 TSNO
PADE 140653Z AUTO VRB05KT 10SM SCT075 M07/M09 A2951 RMK AO2 SLP992 T10671089 TSNO
PADE 140553Z AUTO 09006KT 10SM CLR M10/M11 A2949 RMK AO2 SLP987 T11001106 11072 21128 51018 TSNO
PADE 140453Z AUTO 07003KT 10SM SCT049 M08/M09 A2947 RMK AO2 SLP981 T10831094 TSNO
PADE 140353Z AUTO 00000KT 10SM BKN070 M09/M11 A2946 RMK AO2 SLP975 T10891111 TSNO